createdAt,value
2023-05-04T00:02:18.427Z,21.80
2023-05-04T00:04:46.801Z,21.80
2023-05-04T00:07:13.653Z,21.80
2023-05-04T00:09:40.400Z,21.80
2023-05-04T00:12:08.078Z,21.80
2023-05-04T00:14:35.371Z,21.80
2023-05-04T00:17:04.884Z,21.80
2023-05-04T00:19:31.726Z,21.80
2023-05-04T00:21:58.379Z,21.80
2023-05-04T00:24:25.105Z,21.80
2023-05-04T00:26:51.805Z,21.70
2023-05-04T00:29:18.595Z,21.70
2023-05-04T00:31:46.430Z,21.70
2023-05-04T00:34:14.089Z,21.70
2023-05-04T00:36:40.810Z,21.70
2023-05-04T00:39:07.696Z,21.70
2023-05-04T00:41:34.528Z,21.70
2023-05-04T00:44:04.216Z,21.70
2023-05-04T00:46:31.891Z,21.70
2023-05-04T00:48:59.753Z,21.70
2023-05-04T00:51:26.471Z,21.60
2023-05-04T00:53:54.345Z,21.60
2023-05-04T00:56:24.488Z,21.60
2023-05-04T00:58:54.340Z,21.60
2023-05-04T01:01:24.564Z,21.60
2023-05-04T01:03:51.813Z,21.60
2023-05-04T01:06:53.029Z,21.60
2023-05-04T01:09:23.013Z,21.60
2023-05-04T01:11:58.676Z,21.60
2023-05-04T01:14:25.383Z,21.60
2023-05-04T01:16:56.649Z,21.60
2023-05-04T01:19:23.482Z,21.60
2023-05-04T01:21:51.354Z,21.60
2023-05-04T01:24:18.104Z,21.60
2023-05-04T01:26:46.164Z,21.60
2023-05-04T01:29:27.694Z,21.60
2023-05-04T01:31:54.347Z,21.70
2023-05-04T01:34:21.931Z,21.60
2023-05-04T01:36:48.589Z,21.70
2023-05-04T01:39:15.998Z,21.60
2023-05-04T01:41:42.786Z,21.70
2023-05-04T01:44:09.521Z,21.70
2023-05-04T01:46:36.305Z,21.60
2023-05-04T01:49:03.003Z,21.60
2023-05-04T01:51:29.655Z,21.60
2023-05-04T01:53:56.403Z,21.60
2023-05-04T01:56:23.512Z,21.60
2023-05-04T01:58:50.192Z,21.60
2023-05-04T02:01:16.951Z,21.60
2023-05-04T02:03:44.571Z,21.50
2023-05-04T02:06:11.543Z,21.50
2023-05-04T02:08:38.297Z,21.50
2023-05-04T02:11:05.038Z,21.50
2023-05-04T02:13:31.752Z,21.50
2023-05-04T02:15:58.452Z,21.50
2023-05-04T02:18:25.196Z,21.50
2023-05-04T02:20:52.753Z,21.50
2023-05-04T02:23:19.459Z,21.50
2023-05-04T02:25:46.139Z,21.50
2023-05-04T02:28:12.828Z,21.50
2023-05-04T02:30:39.505Z,21.50
2023-05-04T02:33:06.284Z,21.50
2023-05-04T02:35:33.157Z,21.50
2023-05-04T02:37:59.868Z,21.50
2023-05-04T02:40:26.762Z,21.40
2023-05-04T02:42:54.152Z,21.50
2023-05-04T02:45:21.154Z,21.40
2023-05-04T02:47:47.923Z,21.40
2023-05-04T02:50:14.648Z,21.50
2023-05-04T02:52:41.303Z,21.50
2023-05-04T02:55:08.343Z,21.50
2023-05-04T02:57:35.021Z,21.50
2023-05-04T03:00:01.975Z,21.50
2023-05-04T03:02:28.874Z,21.50
2023-05-04T03:04:57.170Z,21.50
2023-05-04T03:07:24.819Z,21.50
2023-05-04T03:09:51.479Z,21.50
2023-05-04T03:12:18.273Z,21.50
2023-05-04T03:14:44.997Z,21.50
2023-05-04T03:17:11.728Z,21.50
2023-05-04T03:19:38.521Z,21.50
2023-05-04T03:22:05.441Z,21.40
2023-05-04T03:24:32.193Z,21.40
2023-05-04T03:26:58.901Z,21.40
2023-05-04T03:29:27.188Z,21.40
2023-05-04T03:31:53.924Z,21.40
2023-05-04T03:34:23.337Z,21.40
2023-05-04T03:36:50.074Z,21.40
2023-05-04T03:39:17.788Z,21.30
2023-05-04T03:41:44.605Z,21.40
2023-05-04T03:44:11.322Z,21.30
2023-05-04T03:46:38.174Z,21.30
2023-05-04T03:49:04.928Z,21.30
2023-05-04T03:51:31.603Z,21.30
2023-05-04T03:53:59.153Z,21.30
2023-05-04T03:56:25.848Z,21.30
2023-05-04T03:58:52.722Z,21.30
2023-05-04T04:01:19.493Z,21.40
2023-05-04T04:03:46.497Z,21.30
2023-05-04T04:06:13.488Z,21.30
2023-05-04T04:08:40.173Z,21.30
2023-05-04T04:11:06.942Z,21.30
2023-05-04T04:13:33.625Z,21.30
2023-05-04T04:16:00.995Z,21.30
2023-05-04T04:18:29.380Z,21.30
2023-05-04T04:20:56.067Z,21.30
2023-05-04T04:23:22.854Z,21.30
2023-05-04T04:25:49.547Z,21.40
2023-05-04T04:28:16.696Z,21.30
2023-05-04T04:30:43.401Z,21.30
2023-05-04T04:33:10.281Z,21.40
2023-05-04T04:35:37.275Z,21.40
2023-05-04T04:38:04.144Z,21.40
2023-05-04T04:40:32.084Z,21.40
2023-05-04T04:42:58.781Z,21.30
2023-05-04T04:45:25.514Z,21.30
2023-05-04T04:47:52.251Z,21.30
2023-05-04T04:50:19.328Z,21.30
2023-05-04T04:52:46.362Z,21.30
2023-05-04T04:55:13.403Z,21.30
2023-05-04T04:57:40.221Z,21.30
2023-05-04T05:00:09.706Z,21.30
2023-05-04T05:02:36.881Z,21.30
2023-05-04T05:05:03.887Z,21.30
2023-05-04T05:07:32.541Z,21.30
2023-05-04T05:09:59.491Z,21.30
2023-05-04T05:12:26.791Z,21.30
2023-05-04T05:14:53.608Z,21.30
2023-05-04T05:17:20.657Z,21.40
2023-05-04T05:19:48.215Z,21.40
2023-05-04T05:22:15.008Z,21.40
2023-05-04T05:24:41.735Z,21.40
2023-05-04T05:27:08.442Z,21.40
2023-05-04T05:29:35.502Z,21.40
2023-05-04T05:32:03.650Z,21.40
2023-05-04T05:34:31.066Z,21.40
2023-05-04T05:36:58.293Z,21.40
2023-05-04T05:39:25.086Z,21.40
2023-05-04T05:41:55.193Z,21.50
2023-05-04T05:44:21.911Z,21.50
2023-05-04T05:46:48.584Z,21.40
2023-05-04T05:49:15.332Z,21.50
2023-05-04T05:51:42.096Z,21.50
2023-05-04T05:54:08.763Z,21.50
2023-05-04T05:56:35.699Z,21.50
2023-05-04T05:59:03.289Z,21.50
2023-05-04T06:01:30.620Z,21.50
2023-05-04T06:03:57.730Z,21.40
2023-05-04T06:06:24.882Z,21.40
2023-05-04T06:08:51.973Z,21.40
2023-05-04T06:11:19.048Z,21.40
2023-05-04T06:13:46.356Z,21.40
2023-05-04T06:16:14.550Z,21.40
2023-05-04T06:18:41.702Z,21.40
2023-05-04T06:21:09.100Z,21.30
2023-05-04T06:23:36.738Z,21.30
2023-05-04T06:26:08.334Z,21.40
2023-05-04T06:28:35.562Z,21.30
2023-05-04T06:31:03.785Z,21.30
2023-05-04T06:33:31.031Z,21.30
2023-05-04T06:35:58.486Z,21.40
2023-05-04T06:38:25.444Z,21.30
2023-05-04T06:40:52.416Z,21.30
2023-05-04T06:43:19.157Z,21.30
2023-05-04T06:45:45.910Z,21.30
2023-05-04T06:48:12.666Z,21.30
2023-05-04T06:50:39.976Z,21.30
2023-05-04T06:53:09.015Z,21.30
2023-05-04T06:55:37.079Z,21.30
2023-05-04T06:58:04.859Z,21.40
2023-05-04T07:00:34.571Z,21.30
2023-05-04T07:03:02.235Z,21.30
2023-05-04T07:05:29.145Z,21.40
2023-05-04T07:07:56.308Z,21.40
2023-05-04T07:10:23.243Z,21.40
2023-05-04T07:12:50.002Z,21.40
2023-05-04T07:15:16.774Z,21.40
2023-05-04T07:17:43.633Z,21.40
2023-05-04T07:20:11.276Z,21.40
2023-05-04T07:22:38.049Z,21.40
2023-05-04T07:25:05.339Z,21.40
2023-05-04T07:27:32.762Z,21.40
2023-05-04T07:30:00.044Z,21.40
2023-05-04T07:32:26.883Z,21.40
2023-05-04T07:34:53.673Z,21.40
2023-05-04T07:37:20.481Z,21.40
2023-05-04T07:39:47.193Z,21.40
2023-05-04T07:42:13.923Z,21.40
2023-05-04T07:44:41.353Z,21.40
2023-05-04T07:47:08.785Z,21.40
2023-05-04T07:49:35.564Z,21.40
2023-05-04T07:52:04.534Z,21.40
2023-05-04T07:54:31.417Z,21.40
2023-05-04T07:56:58.156Z,21.40
2023-05-04T07:59:24.894Z,21.50
2023-05-04T08:01:51.609Z,21.40
2023-05-04T08:04:18.291Z,21.40
2023-05-04T08:06:45.468Z,21.30
2023-05-04T08:09:12.519Z,21.30
2023-05-04T08:11:42.561Z,21.30
2023-05-04T08:14:09.412Z,21.30
2023-05-04T08:16:36.620Z,21.20
2023-05-04T08:19:05.514Z,21.20
2023-05-04T08:21:33.191Z,21.20
2023-05-04T08:24:00.130Z,21.30
2023-05-04T08:26:26.991Z,21.30
2023-05-04T08:28:53.774Z,21.40
2023-05-04T08:31:21.396Z,21.30
2023-05-04T08:33:48.459Z,21.40
2023-05-04T08:36:15.567Z,21.40
2023-05-04T08:38:42.385Z,21.40
2023-05-04T08:41:10.934Z,21.50
2023-05-04T08:43:37.695Z,21.40
2023-05-04T08:46:06.425Z,21.50
2023-05-04T08:48:35.194Z,21.60
2023-05-04T08:51:04.200Z,21.60
2023-05-04T08:53:31.854Z,21.60
2023-05-04T08:56:04.394Z,21.70
2023-05-04T08:58:32.396Z,21.70
2023-05-04T09:00:59.633Z,21.60
2023-05-04T09:03:26.457Z,21.70
2023-05-04T09:05:53.165Z,21.70
2023-05-04T09:08:20.836Z,21.70
2023-05-04T09:10:47.532Z,21.60
2023-05-04T09:13:14.719Z,21.70
2023-05-04T09:15:42.350Z,21.70
2023-05-04T09:18:11.809Z,21.70
2023-05-04T09:20:46.701Z,21.70
2023-05-04T09:23:14.193Z,21.60
2023-05-04T09:25:48.483Z,21.70
2023-05-04T09:28:15.947Z,21.70
2023-05-04T09:30:43.070Z,21.80
2023-05-04T09:33:10.702Z,21.80
2023-05-04T09:35:40.747Z,21.80
2023-05-04T09:38:07.455Z,21.80
2023-05-04T09:40:38.830Z,21.70
2023-05-04T09:43:06.605Z,21.70
2023-05-04T09:45:40.557Z,21.70
2023-05-04T09:48:27.152Z,21.70
2023-05-04T09:50:58.183Z,21.70
2023-05-04T09:53:28.846Z,21.70
2023-05-04T09:56:35.124Z,21.80
2023-05-04T09:59:01.862Z,21.80
2023-05-04T10:01:29.551Z,21.80
2023-05-04T10:03:56.564Z,21.80
2023-05-04T10:06:28.026Z,21.80
2023-05-04T10:08:54.717Z,21.70
2023-05-04T10:11:21.567Z,21.80
2023-05-04T10:13:48.484Z,21.80
2023-05-04T10:16:24.163Z,21.80
2023-05-04T10:19:09.876Z,21.80
2023-05-04T10:22:01.668Z,21.90
2023-05-04T10:24:31.233Z,21.80
2023-05-04T10:27:14.249Z,21.90
2023-05-04T10:29:41.016Z,21.90
2023-05-04T10:32:21.070Z,21.90
2023-05-04T10:34:47.779Z,21.90
2023-05-04T10:37:19.856Z,22.00
2023-05-04T10:39:56.082Z,21.90
2023-05-04T10:42:22.974Z,21.90
2023-05-04T10:44:56.223Z,22.00
2023-05-04T10:47:34.020Z,22.00
2023-05-04T10:50:12.046Z,22.00
2023-05-04T10:52:49.071Z,22.10
2023-05-04T10:55:16.046Z,22.00
2023-05-04T10:57:57.979Z,22.00
2023-05-04T11:00:37.056Z,22.10
2023-05-04T11:03:04.941Z,22.10
2023-05-04T11:05:45.126Z,22.10
2023-05-04T11:08:30.584Z,22.10
2023-05-04T11:11:05.061Z,22.10
2023-05-04T11:13:46.116Z,22.10
2023-05-04T11:16:13.839Z,22.10
2023-05-04T11:18:41.184Z,22.10
2023-05-04T11:21:08.745Z,22.10
2023-05-04T11:23:35.696Z,22.00
2023-05-04T11:26:07.969Z,22.10
2023-05-04T11:28:37.160Z,22.00
2023-05-04T11:31:33.361Z,22.00
2023-05-04T11:34:00.134Z,22.00
2023-05-04T11:36:27.239Z,22.00
2023-05-04T11:38:56.540Z,22.00
2023-05-04T11:41:26.231Z,22.00
2023-05-04T11:43:52.968Z,22.10
2023-05-04T11:46:19.699Z,22.20
2023-05-04T11:48:47.212Z,22.00
2023-05-04T11:51:13.949Z,21.80
2023-05-04T11:53:41.234Z,21.80
2023-05-04T11:56:09.632Z,21.80
2023-05-04T11:58:38.140Z,22.00
2023-05-04T12:01:05.078Z,22.00
2023-05-04T12:03:48.488Z,22.00
2023-05-04T12:06:20.098Z,22.10
2023-05-04T12:08:46.911Z,22.10
2023-05-04T12:11:16.774Z,22.20
2023-05-04T12:13:44.748Z,22.20
2023-05-04T12:16:15.817Z,22.20
2023-05-04T12:18:44.173Z,22.20
2023-05-04T12:21:12.175Z,22.20
2023-05-04T12:23:39.447Z,22.10
2023-05-04T12:26:08.206Z,22.20
2023-05-04T12:28:36.687Z,22.20
2023-05-04T12:31:05.019Z,22.20
2023-05-04T12:33:32.224Z,22.30
2023-05-04T12:36:01.614Z,22.30
2023-05-04T12:38:28.695Z,22.30
2023-05-04T12:40:55.985Z,22.30
2023-05-04T12:43:25.506Z,22.30
2023-05-04T12:45:52.411Z,22.30
2023-05-04T12:48:20.857Z,22.30
2023-05-04T12:50:49.153Z,22.30
2023-05-04T12:53:16.263Z,22.30
2023-05-04T12:55:43.075Z,22.40
2023-05-04T12:58:10.218Z,22.40
2023-05-04T13:00:38.734Z,22.30
2023-05-04T13:03:06.570Z,22.40
2023-05-04T13:05:33.708Z,22.30
2023-05-04T13:08:00.877Z,22.30
2023-05-04T13:10:28.045Z,22.30
2023-05-04T13:12:54.888Z,22.30
2023-05-04T13:15:21.867Z,22.40
2023-05-04T13:17:48.749Z,22.40
2023-05-04T13:20:16.055Z,22.40
2023-05-04T13:22:46.207Z,22.30
2023-05-04T13:25:12.968Z,22.40
2023-05-04T13:27:39.683Z,22.40
2023-05-04T13:30:08.463Z,22.40
2023-05-04T13:32:37.234Z,22.40
2023-05-04T13:35:04.940Z,22.50
2023-05-04T13:37:31.807Z,22.50
2023-05-04T13:39:59.548Z,22.50
2023-05-04T13:42:26.386Z,22.60
2023-05-04T13:44:53.326Z,22.60
2023-05-04T13:47:20.421Z,22.60
2023-05-04T13:49:47.514Z,22.60
2023-05-04T13:52:14.229Z,22.60
2023-05-04T13:54:41.364Z,22.60
2023-05-04T13:57:09.521Z,22.60
2023-05-04T13:59:36.210Z,22.70
2023-05-04T14:02:03.228Z,22.70
2023-05-04T14:04:30.230Z,22.70
2023-05-04T14:06:57.653Z,22.70
2023-05-04T14:09:25.322Z,22.70
2023-05-04T14:11:52.012Z,22.70
2023-05-04T14:14:18.728Z,22.70
2023-05-04T14:16:45.837Z,22.60
2023-05-04T14:19:12.577Z,22.70
2023-05-04T14:21:39.488Z,22.60
2023-05-04T14:24:06.337Z,22.70
2023-05-04T14:26:33.047Z,22.70
2023-05-04T14:28:59.855Z,22.60
2023-05-04T14:31:26.597Z,22.70
2023-05-04T14:33:56.064Z,22.60
2023-05-04T14:36:23.658Z,22.60
2023-05-04T14:38:50.408Z,22.60
2023-05-04T14:41:17.154Z,22.60
2023-05-04T14:43:43.901Z,22.50
2023-05-04T14:46:12.526Z,22.50
2023-05-04T14:48:39.528Z,22.50
2023-05-04T14:51:06.300Z,22.60
2023-05-04T14:53:36.885Z,22.50
2023-05-04T14:56:04.726Z,22.50
2023-05-04T14:58:31.403Z,22.50
2023-05-04T15:00:58.144Z,22.50
2023-05-04T15:03:25.956Z,22.50
2023-05-04T15:05:52.866Z,22.60
2023-05-04T15:08:19.567Z,22.60
2023-05-04T15:10:46.368Z,22.60
2023-05-04T15:13:15.699Z,22.60
2023-05-04T15:15:42.846Z,22.60
2023-05-04T15:18:10.024Z,22.60
2023-05-04T15:20:40.289Z,22.60
2023-05-04T15:23:16.357Z,22.60
2023-05-04T15:25:43.138Z,22.60
2023-05-04T15:28:12.497Z,22.60
2023-05-04T15:30:40.118Z,22.60
2023-05-04T15:33:07.075Z,22.60
2023-05-04T15:35:34.741Z,22.70
2023-05-04T15:38:02.445Z,22.80
2023-05-04T15:40:29.252Z,22.90
2023-05-04T15:42:56.027Z,22.90
2023-05-04T15:45:22.713Z,23.00
2023-05-04T15:47:49.474Z,23.00
2023-05-04T15:50:16.170Z,23.00
2023-05-04T15:52:44.917Z,23.00
2023-05-04T15:55:24.271Z,22.90
2023-05-04T15:57:52.277Z,22.90
2023-05-04T16:00:19.469Z,22.90
2023-05-04T16:02:46.487Z,23.00
2023-05-04T16:05:13.345Z,23.00
2023-05-04T16:07:40.063Z,22.90
2023-05-04T16:10:07.485Z,22.90
2023-05-04T16:12:34.592Z,22.90
2023-05-04T16:15:01.363Z,23.00
2023-05-04T16:17:29.240Z,22.90
2023-05-04T16:19:56.153Z,22.80
2023-05-04T16:22:22.894Z,22.90
2023-05-04T16:24:49.688Z,22.90
2023-05-04T16:27:16.407Z,22.90
2023-05-04T16:29:43.771Z,22.90
2023-05-04T16:32:10.424Z,22.90
2023-05-04T16:34:37.147Z,22.80
2023-05-04T16:37:03.889Z,22.90
2023-05-04T16:39:31.347Z,22.80
2023-05-04T16:41:58.488Z,22.90
2023-05-04T16:44:25.788Z,22.90
2023-05-04T16:46:54.054Z,23.00
2023-05-04T16:49:23.585Z,23.00
2023-05-04T16:51:50.252Z,23.00
2023-05-04T16:54:19.048Z,23.00
2023-05-04T16:56:46.023Z,23.00
2023-05-04T16:59:15.290Z,23.10
2023-05-04T17:01:43.469Z,23.10
2023-05-04T17:04:10.898Z,23.10
2023-05-04T17:06:38.048Z,23.10
2023-05-04T17:09:04.953Z,23.10
2023-05-04T17:11:31.799Z,23.10
2023-05-04T17:13:59.016Z,23.10
2023-05-04T17:16:25.843Z,23.10
2023-05-04T17:18:52.652Z,23.10
2023-05-04T17:21:19.856Z,23.00
2023-05-04T17:23:46.620Z,23.00
2023-05-04T17:26:13.341Z,23.00
2023-05-04T17:28:40.277Z,23.00
2023-05-04T17:31:10.931Z,23.00
2023-05-04T17:33:37.735Z,23.00
2023-05-04T17:36:05.995Z,23.00
2023-05-04T17:38:32.745Z,23.10
2023-05-04T17:40:59.487Z,23.10
2023-05-04T17:43:26.231Z,23.00
2023-05-04T17:45:55.526Z,23.10
2023-05-04T17:48:23.898Z,23.10
2023-05-04T17:50:50.960Z,23.10
2023-05-04T17:53:18.262Z,23.10
2023-05-04T17:55:45.967Z,23.10
2023-05-04T17:58:13.142Z,23.10
2023-05-04T18:00:40.496Z,23.10
2023-05-04T18:03:07.250Z,23.10
2023-05-04T18:05:34.169Z,23.10
2023-05-04T18:08:00.884Z,23.10
2023-05-04T18:10:27.647Z,23.10
2023-05-04T18:12:56.525Z,23.10
2023-05-04T18:15:24.224Z,23.10
2023-05-04T18:17:51.079Z,23.10
2023-05-04T18:20:17.761Z,23.10
2023-05-04T18:22:46.609Z,23.20
2023-05-04T18:25:16.484Z,23.20
2023-05-04T18:27:44.448Z,23.10
2023-05-04T18:30:11.467Z,23.10
2023-05-04T18:32:38.243Z,23.10
2023-05-04T18:35:05.177Z,23.10
2023-05-04T18:37:31.957Z,23.10
2023-05-04T18:39:58.875Z,23.00
2023-05-04T18:42:25.707Z,23.10
2023-05-04T18:44:56.199Z,23.20
2023-05-04T18:47:22.967Z,23.30
2023-05-04T18:49:50.987Z,23.30
2023-05-04T18:52:17.889Z,23.30
2023-05-04T18:54:45.986Z,23.30
2023-05-04T18:57:14.096Z,23.30
2023-05-04T18:59:41.027Z,23.20
2023-05-04T19:02:08.427Z,23.30
2023-05-04T19:04:35.489Z,23.20
2023-05-04T19:07:02.413Z,23.20
2023-05-04T19:09:29.226Z,23.30
2023-05-04T19:11:55.960Z,23.20
2023-05-04T19:14:22.687Z,23.20
2023-05-04T19:16:49.971Z,23.20
2023-05-04T19:19:16.685Z,23.30
2023-05-04T19:21:44.796Z,23.30
2023-05-04T19:24:11.549Z,23.20
2023-05-04T19:26:39.065Z,23.20
2023-05-04T19:29:05.882Z,23.20
2023-05-04T19:31:32.738Z,23.20
2023-05-04T19:33:59.531Z,23.20
2023-05-04T19:36:27.373Z,23.20
2023-05-04T19:38:54.510Z,23.20
2023-05-04T19:41:21.363Z,23.20
2023-05-04T19:43:48.047Z,23.20
2023-05-04T19:46:16.531Z,23.20
2023-05-04T19:48:44.875Z,23.20
2023-05-04T19:51:11.943Z,23.20
2023-05-04T19:53:38.742Z,23.20
2023-05-04T19:56:05.699Z,23.20
2023-05-04T19:58:32.495Z,23.20
2023-05-04T20:00:59.500Z,23.20
2023-05-04T20:03:26.427Z,23.30
2023-05-04T20:05:53.423Z,23.30
2023-05-04T20:08:20.302Z,23.30
2023-05-04T20:10:47.189Z,23.30
2023-05-04T20:13:14.773Z,23.30
2023-05-04T20:15:42.602Z,23.30
2023-05-04T20:18:09.592Z,23.30
2023-05-04T20:20:36.363Z,23.20
2023-05-04T20:23:03.249Z,23.20
2023-05-04T20:25:30.080Z,23.30
2023-05-04T20:27:56.874Z,23.20
2023-05-04T20:30:23.623Z,23.30
2023-05-04T20:32:50.430Z,23.30
2023-05-04T20:35:17.347Z,23.20
2023-05-04T20:37:45.072Z,23.20
2023-05-04T20:40:12.400Z,23.20
2023-05-04T20:42:39.252Z,23.20
2023-05-04T20:45:06.548Z,23.20
2023-05-04T20:47:33.291Z,23.30
2023-05-04T20:50:01.153Z,23.30
2023-05-04T20:52:27.900Z,23.20
2023-05-04T20:54:54.856Z,23.20
2023-05-04T20:57:21.578Z,23.20
2023-05-04T20:59:48.291Z,23.20
2023-05-04T21:02:16.278Z,23.10
2023-05-04T21:04:43.375Z,23.10
2023-05-04T21:07:10.141Z,23.20
2023-05-04T21:09:36.954Z,23.10
2023-05-04T21:12:04.381Z,23.10
2023-05-04T21:14:31.207Z,23.10
2023-05-04T21:16:57.927Z,23.10
2023-05-04T21:19:24.652Z,23.10
2023-05-04T21:21:51.980Z,23.10
2023-05-04T21:24:18.781Z,23.10
2023-05-04T21:26:47.167Z,23.10
2023-05-04T21:29:14.139Z,23.10
2023-05-04T21:31:41.249Z,23.10
2023-05-04T21:34:08.526Z,23.10
2023-05-04T21:36:35.799Z,23.10
2023-05-04T21:39:02.543Z,23.10
2023-05-04T21:41:29.978Z,23.10
2023-05-04T21:43:57.087Z,23.00
2023-05-04T21:46:24.328Z,23.00
2023-05-04T21:48:51.878Z,23.00
2023-05-04T21:51:21.007Z,23.00
2023-05-04T21:53:49.411Z,23.00
2023-05-04T21:56:16.101Z,23.00
2023-05-04T21:58:43.352Z,23.00
2023-05-04T22:01:14.553Z,22.90
2023-05-04T22:03:41.497Z,22.90
2023-05-04T22:06:08.444Z,22.90
2023-05-04T22:08:35.447Z,22.90
2023-05-04T22:11:02.219Z,22.90
2023-05-04T22:13:28.897Z,22.90
2023-05-04T22:15:55.670Z,22.90
2023-05-04T22:18:22.461Z,22.90
2023-05-04T22:20:49.975Z,22.90
2023-05-04T22:23:17.081Z,22.90
2023-05-04T22:25:43.779Z,22.90
2023-05-04T22:28:11.158Z,22.90
2023-05-04T22:30:37.881Z,22.90
2023-05-04T22:33:04.654Z,22.90
2023-05-04T22:35:31.618Z,22.90
2023-05-04T22:37:58.449Z,22.80
2023-05-04T22:40:25.325Z,22.80
2023-05-04T22:42:52.754Z,22.80
2023-05-04T22:45:20.629Z,22.80
2023-05-04T22:47:47.383Z,22.80
2023-05-04T22:50:14.332Z,22.80
2023-05-04T22:52:41.215Z,22.80
2023-05-04T22:55:08.793Z,22.70
2023-05-04T22:57:35.764Z,22.70
2023-05-04T23:00:03.957Z,22.80
2023-05-04T23:02:30.771Z,22.70
2023-05-04T23:04:57.553Z,22.80
2023-05-04T23:07:24.280Z,22.80
2023-05-04T23:09:51.611Z,22.80
2023-05-04T23:12:18.346Z,22.80
2023-05-04T23:14:45.055Z,22.80
2023-05-04T23:17:11.808Z,22.80
2023-05-04T23:19:38.512Z,22.80
2023-05-04T23:22:05.621Z,22.80
2023-05-04T23:24:32.272Z,22.80
2023-05-04T23:26:59.124Z,22.70
2023-05-04T23:29:25.900Z,22.70
2023-05-04T23:31:54.220Z,22.70
2023-05-04T23:34:20.994Z,22.70
2023-05-04T23:36:47.802Z,22.70
2023-05-04T23:39:14.964Z,22.60
2023-05-04T23:41:41.825Z,22.70
2023-05-04T23:44:08.581Z,22.70
2023-05-04T23:46:35.309Z,22.60
2023-05-04T23:49:02.001Z,22.60
2023-05-04T23:51:28.675Z,22.60
2023-05-04T23:53:55.950Z,22.60
2023-05-04T23:56:22.677Z,22.70
2023-05-04T23:58:49.644Z,22.70
